sensor_id;sensor_type;location;lat;lon;timestamp;P1;durP1;ratioP1;P2;durP2;ratioP2
62268;SDS011;56517;51.634;5.566;2023-04-07T00:00:35;36.10;;;17.63;;
62268;SDS011;56517;51.634;5.566;2023-04-07T00:01:55;36.42;;;17.40;;
62268;SDS011;56517;51.634;5.566;2023-04-07T00:03:16;30.25;;;17.30;;
62268;SDS011;56517;51.634;5.566;2023-04-07T00:04:37;37.85;;;15.65;;
62268;SDS011;56517;51.634;5.566;2023-04-07T00:05:58;37.85;;;15.75;;
62268;SDS011;56517;51.634;5.566;2023-04-07T00:07:19;38.22;;;17.42;;
62268;SDS011;56517;51.634;5.566;2023-04-07T00:08:40;33.58;;;16.35;;
62268;SDS011;56517;51.634;5.566;2023-04-07T00:10:01;30.58;;;16.80;;
62268;SDS011;56517;51.634;5.566;2023-04-07T00:11:22;39.13;;;17.45;;
62268;SDS011;56517;51.634;5.566;2023-04-07T00:12:43;37.13;;;16.92;;
62268;SDS011;56517;51.634;5.566;2023-04-07T00:14:03;35.75;;;17.38;;
62268;SDS011;56517;51.634;5.566;2023-04-07T00:15:24;38.83;;;17.17;;
62268;SDS011;56517;51.634;5.566;2023-04-07T00:16:46;34.27;;;16.63;;
62268;SDS011;56517;51.634;5.566;2023-04-07T00:18:06;32.38;;;16.30;;
62268;SDS011;56517;51.634;5.566;2023-04-07T00:19:27;34.42;;;17.05;;
62268;SDS011;56517;51.634;5.566;2023-04-07T00:20:48;30.55;;;16.73;;
62268;SDS011;56517;51.634;5.566;2023-04-07T00:22:09;33.65;;;16.13;;
62268;SDS011;56517;51.634;5.566;2023-04-07T00:23:30;29.17;;;16.17;;
62268;SDS011;56517;51.634;5.566;2023-04-07T00:24:51;31.00;;;15.75;;
62268;SDS011;56517;51.634;5.566;2023-04-07T00:26:12;28.65;;;15.98;;
62268;SDS011;56517;51.634;5.566;2023-04-07T00:27:33;35.75;;;17.17;;
62268;SDS011;56517;51.634;5.566;2023-04-07T00:28:54;29.88;;;16.17;;
62268;SDS011;56517;51.634;5.566;2023-04-07T00:30:15;29.23;;;16.10;;
62268;SDS011;56517;51.634;5.566;2023-04-07T00:31:36;38.28;;;16.70;;
62268;SDS011;56517;51.634;5.566;2023-04-07T00:32:56;31.02;;;16.33;;
62268;SDS011;56517;51.634;5.566;2023-04-07T00:34:17;30.10;;;17.02;;
62268;SDS011;56517;51.634;5.566;2023-04-07T00:35:38;33.13;;;16.23;;
62268;SDS011;56517;51.634;5.566;2023-04-07T00:36:59;31.30;;;16.40;;
62268;SDS011;56517;51.634;5.566;2023-04-07T00:38:20;32.30;;;17.17;;
62268;SDS011;56517;51.634;5.566;2023-04-07T00:39:41;32.80;;;16.92;;
62268;SDS011;56517;51.634;5.566;2023-04-07T00:41:02;35.20;;;17.83;;
62268;SDS011;56517;51.634;5.566;2023-04-07T00:42:23;28.42;;;15.60;;
62268;SDS011;56517;51.634;5.566;2023-04-07T00:43:43;37.60;;;15.90;;
62268;SDS011;56517;51.634;5.566;2023-04-07T00:45:05;35.03;;;15.68;;
62268;SDS011;56517;51.634;5.566;2023-04-07T00:46:26;32.47;;;15.85;;
62268;SDS011;56517;51.634;5.566;2023-04-07T00:47:47;40.08;;;18.05;;
62268;SDS011;56517;51.634;5.566;2023-04-07T00:49:08;30.92;;;14.68;;
62268;SDS011;56517;51.634;5.566;2023-04-07T00:50:29;21.02;;;13.98;;
62268;SDS011;56517;51.634;5.566;2023-04-07T00:51:50;26.35;;;14.20;;
62268;SDS011;56517;51.634;5.566;2023-04-07T00:53:11;28.88;;;14.68;;
62268;SDS011;56517;51.634;5.566;2023-04-07T00:54:32;27.98;;;14.77;;
62268;SDS011;56517;51.634;5.566;2023-04-07T00:55:53;27.23;;;13.68;;
62268;SDS011;56517;51.634;5.566;2023-04-07T00:57:14;30.05;;;13.43;;
62268;SDS011;56517;51.634;5.566;2023-04-07T00:58:35;22.40;;;12.48;;
62268;SDS011;56517;51.634;5.566;2023-04-07T00:59:56;19.42;;;12.85;;
62268;SDS011;56517;51.634;5.566;2023-04-07T01:01:26;32.05;;;15.07;;
62268;SDS011;56517;51.634;5.566;2023-04-07T01:02:57;29.75;;;13.52;;
62268;SDS011;56517;51.634;5.566;2023-04-07T01:04:21;23.95;;;11.77;;
62268;SDS011;56517;51.634;5.566;2023-04-07T01:05:51;16.30;;;10.43;;
62268;SDS011;56517;51.634;5.566;2023-04-07T01:07:35;22.33;;;11.65;;
62268;SDS011;56517;51.634;5.566;2023-04-07T01:09:14;16.92;;;11.00;;
62268;SDS011;56517;51.634;5.566;2023-04-07T01:10:41;19.80;;;10.00;;
62268;SDS011;56517;51.634;5.566;2023-04-07T01:12:09;20.20;;;10.43;;
62268;SDS011;56517;51.634;5.566;2023-04-07T01:13:36;17.95;;;10.57;;
62268;SDS011;56517;51.634;5.566;2023-04-07T01:14:59;15.48;;;10.18;;
62268;SDS011;56517;51.634;5.566;2023-04-07T01:16:31;17.02;;;11.02;;
62268;SDS011;56517;51.634;5.566;2023-04-07T01:17:54;21.48;;;10.30;;
62268;SDS011;56517;51.634;5.566;2023-04-07T01:20:38;18.83;;;10.10;;
62268;SDS011;56517;51.634;5.566;2023-04-07T01:22:00;22.05;;;10.70;;
62268;SDS011;56517;51.634;5.566;2023-04-07T01:23:29;20.00;;;10.52;;
62268;SDS011;56517;51.634;5.566;2023-04-07T01:26:35;21.75;;;10.77;;
62268;SDS011;56517;51.634;5.566;2023-04-07T01:29:26;16.60;;;10.05;;
62268;SDS011;56517;51.634;5.566;2023-04-07T01:30:48;18.05;;;10.30;;
62268;SDS011;56517;51.634;5.566;2023-04-07T01:32:09;20.27;;;9.63;;
62268;SDS011;56517;51.634;5.566;2023-04-07T01:33:31;23.38;;;12.18;;
62268;SDS011;56517;51.634;5.566;2023-04-07T01:34:52;18.00;;;10.85;;
62268;SDS011;56517;51.634;5.566;2023-04-07T01:36:14;18.65;;;10.93;;
62268;SDS011;56517;51.634;5.566;2023-04-07T01:37:36;19.42;;;10.20;;
62268;SDS011;56517;51.634;5.566;2023-04-07T01:38:58;19.05;;;11.30;;
62268;SDS011;56517;51.634;5.566;2023-04-07T01:40:19;19.45;;;10.35;;
62268;SDS011;56517;51.634;5.566;2023-04-07T01:41:41;22.80;;;10.23;;
62268;SDS011;56517;51.634;5.566;2023-04-07T01:43:02;17.52;;;11.10;;
62268;SDS011;56517;51.634;5.566;2023-04-07T01:44:23;17.35;;;10.57;;
62268;SDS011;56517;51.634;5.566;2023-04-07T01:45:45;23.50;;;11.43;;
62268;SDS011;56517;51.634;5.566;2023-04-07T01:47:06;15.60;;;10.23;;
62268;SDS011;56517;51.634;5.566;2023-04-07T01:48:28;21.40;;;11.50;;
62268;SDS011;56517;51.634;5.566;2023-04-07T01:49:49;25.45;;;11.40;;
62268;SDS011;56517;51.634;5.566;2023-04-07T01:51:10;27.95;;;11.77;;
62268;SDS011;56517;51.634;5.566;2023-04-07T01:52:37;20.95;;;11.07;;
62268;SDS011;56517;51.634;5.566;2023-04-07T01:53:58;18.95;;;10.90;;
62268;SDS011;56517;51.634;5.566;2023-04-07T01:55:21;23.80;;;12.13;;
62268;SDS011;56517;51.634;5.566;2023-04-07T01:56:43;19.87;;;10.83;;
62268;SDS011;56517;51.634;5.566;2023-04-07T01:58:04;17.05;;;10.30;;
62268;SDS011;56517;51.634;5.566;2023-04-07T01:59:26;20.08;;;10.77;;
62268;SDS011;56517;51.634;5.566;2023-04-07T02:00:47;17.17;;;9.93;;
62268;SDS011;56517;51.634;5.566;2023-04-07T02:02:08;18.00;;;10.68;;
62268;SDS011;56517;51.634;5.566;2023-04-07T02:03:38;20.35;;;11.68;;
62268;SDS011;56517;51.634;5.566;2023-04-07T02:05:00;19.27;;;10.32;;
62268;SDS011;56517;51.634;5.566;2023-04-07T02:06:27;21.42;;;11.05;;
62268;SDS011;56517;51.634;5.566;2023-04-07T02:07:52;19.77;;;10.95;;
62268;SDS011;56517;51.634;5.566;2023-04-07T02:09:15;23.08;;;10.57;;
62268;SDS011;56517;51.634;5.566;2023-04-07T02:10:37;18.63;;;10.57;;
62268;SDS011;56517;51.634;5.566;2023-04-07T02:11:59;22.27;;;11.25;;
62268;SDS011;56517;51.634;5.566;2023-04-07T02:13:20;21.15;;;11.25;;
62268;SDS011;56517;51.634;5.566;2023-04-07T02:14:42;21.13;;;10.35;;
62268;SDS011;56517;51.634;5.566;2023-04-07T02:16:03;23.48;;;9.85;;
62268;SDS011;56517;51.634;5.566;2023-04-07T02:17:24;18.02;;;10.38;;
62268;SDS011;56517;51.634;5.566;2023-04-07T02:18:46;17.15;;;10.70;;
62268;SDS011;56517;51.634;5.566;2023-04-07T02:20:08;24.13;;;11.05;;
62268;SDS011;56517;51.634;5.566;2023-04-07T02:21:30;21.33;;;11.80;;
62268;SDS011;56517;51.634;5.566;2023-04-07T02:22:52;19.20;;;9.52;;
62268;SDS011;56517;51.634;5.566;2023-04-07T02:24:18;20.17;;;10.25;;
62268;SDS011;56517;51.634;5.566;2023-04-07T02:25:39;19.58;;;10.25;;
62268;SDS011;56517;51.634;5.566;2023-04-07T02:27:00;19.70;;;10.48;;
62268;SDS011;56517;51.634;5.566;2023-04-07T02:28:21;20.17;;;10.55;;
62268;SDS011;56517;51.634;5.566;2023-04-07T02:29:42;15.85;;;9.25;;
62268;SDS011;56517;51.634;5.566;2023-04-07T02:31:03;19.73;;;10.02;;
62268;SDS011;56517;51.634;5.566;2023-04-07T02:32:24;15.07;;;10.20;;
62268;SDS011;56517;51.634;5.566;2023-04-07T02:33:45;15.43;;;9.23;;
62268;SDS011;56517;51.634;5.566;2023-04-07T02:35:06;15.13;;;8.82;;
62268;SDS011;56517;51.634;5.566;2023-04-07T02:36:27;16.65;;;9.75;;
62268;SDS011;56517;51.634;5.566;2023-04-07T02:37:47;18.33;;;10.10;;
62268;SDS011;56517;51.634;5.566;2023-04-07T02:39:08;13.18;;;9.55;;
62268;SDS011;56517;51.634;5.566;2023-04-07T02:40:30;16.33;;;9.50;;
62268;SDS011;56517;51.634;5.566;2023-04-07T02:41:51;23.48;;;9.77;;
62268;SDS011;56517;51.634;5.566;2023-04-07T02:43:12;17.65;;;10.88;;
62268;SDS011;56517;51.634;5.566;2023-04-07T02:44:33;23.77;;;10.80;;
62268;SDS011;56517;51.634;5.566;2023-04-07T02:45:54;19.60;;;11.52;;
62268;SDS011;56517;51.634;5.566;2023-04-07T02:47:15;34.05;;;10.82;;
62268;SDS011;56517;51.634;5.566;2023-04-07T02:48:36;25.95;;;11.27;;
62268;SDS011;56517;51.634;5.566;2023-04-07T02:49:57;24.85;;;11.57;;
62268;SDS011;56517;51.634;5.566;2023-04-07T02:51:18;19.83;;;10.48;;
62268;SDS011;56517;51.634;5.566;2023-04-07T02:52:39;18.15;;;11.52;;
62268;SDS011;56517;51.634;5.566;2023-04-07T02:54:00;19.80;;;10.73;;
62268;SDS011;56517;51.634;5.566;2023-04-07T02:55:21;21.40;;;11.23;;
62268;SDS011;56517;51.634;5.566;2023-04-07T02:56:42;21.40;;;10.77;;
62268;SDS011;56517;51.634;5.566;2023-04-07T02:58:03;23.65;;;11.35;;
62268;SDS011;56517;51.634;5.566;2023-04-07T02:59:23;22.98;;;11.55;;
62268;SDS011;56517;51.634;5.566;2023-04-07T03:00:44;18.67;;;11.15;;
62268;SDS011;56517;51.634;5.566;2023-04-07T03:02:07;28.58;;;11.80;;
62268;SDS011;56517;51.634;5.566;2023-04-07T03:03:28;21.85;;;11.32;;
62268;SDS011;56517;51.634;5.566;2023-04-07T03:04:52;30.70;;;12.43;;
62268;SDS011;56517;51.634;5.566;2023-04-07T03:06:13;18.02;;;10.52;;
62268;SDS011;56517;51.634;5.566;2023-04-07T03:07:34;24.75;;;11.23;;
62268;SDS011;56517;51.634;5.566;2023-04-07T03:08:55;18.48;;;10.23;;
62268;SDS011;56517;51.634;5.566;2023-04-07T03:10:16;24.73;;;11.18;;
62268;SDS011;56517;51.634;5.566;2023-04-07T03:11:37;15.93;;;11.27;;
62268;SDS011;56517;51.634;5.566;2023-04-07T03:12:58;20.95;;;11.43;;
62268;SDS011;56517;51.634;5.566;2023-04-07T03:14:19;21.13;;;10.13;;
62268;SDS011;56517;51.634;5.566;2023-04-07T03:15:40;22.08;;;11.05;;
62268;SDS011;56517;51.634;5.566;2023-04-07T03:17:01;15.98;;;10.32;;
62268;SDS011;56517;51.634;5.566;2023-04-07T03:18:21;19.90;;;11.18;;
62268;SDS011;56517;51.634;5.566;2023-04-07T03:19:42;15.65;;;10.95;;
62268;SDS011;56517;51.634;5.566;2023-04-07T03:21:03;22.63;;;11.27;;
62268;SDS011;56517;51.634;5.566;2023-04-07T03:22:24;14.68;;;9.18;;
62268;SDS011;56517;51.634;5.566;2023-04-07T03:23:45;17.30;;;10.60;;
62268;SDS011;56517;51.634;5.566;2023-04-07T03:25:06;22.50;;;11.15;;
62268;SDS011;56517;51.634;5.566;2023-04-07T03:26:28;28.88;;;12.15;;
62268;SDS011;56517;51.634;5.566;2023-04-07T03:27:49;16.85;;;10.05;;
62268;SDS011;56517;51.634;5.566;2023-04-07T03:29:10;23.38;;;11.48;;
62268;SDS011;56517;51.634;5.566;2023-04-07T03:30:31;20.25;;;10.38;;
62268;SDS011;56517;51.634;5.566;2023-04-07T03:31:51;24.80;;;12.35;;
62268;SDS011;56517;51.634;5.566;2023-04-07T03:33:12;19.98;;;11.18;;
62268;SDS011;56517;51.634;5.566;2023-04-07T03:34:33;27.08;;;11.27;;
62268;SDS011;56517;51.634;5.566;2023-04-07T03:35:54;20.58;;;10.65;;
62268;SDS011;56517;51.634;5.566;2023-04-07T03:37:15;23.58;;;11.35;;
62268;SDS011;56517;51.634;5.566;2023-04-07T03:38:36;20.88;;;10.55;;
62268;SDS011;56517;51.634;5.566;2023-04-07T03:39:57;23.90;;;10.95;;
62268;SDS011;56517;51.634;5.566;2023-04-07T03:41:18;21.90;;;10.25;;
62268;SDS011;56517;51.634;5.566;2023-04-07T03:42:39;20.83;;;10.73;;
62268;SDS011;56517;51.634;5.566;2023-04-07T03:43:59;19.23;;;11.77;;
62268;SDS011;56517;51.634;5.566;2023-04-07T03:45:20;16.27;;;9.35;;
62268;SDS011;56517;51.634;5.566;2023-04-07T03:46:41;26.55;;;10.85;;
62268;SDS011;56517;51.634;5.566;2023-04-07T03:48:02;25.42;;;10.90;;
62268;SDS011;56517;51.634;5.566;2023-04-07T03:49:23;22.75;;;10.70;;
62268;SDS011;56517;51.634;5.566;2023-04-07T03:50:44;18.13;;;10.13;;
62268;SDS011;56517;51.634;5.566;2023-04-07T03:52:05;21.38;;;10.48;;
62268;SDS011;56517;51.634;5.566;2023-04-07T03:53:26;21.60;;;10.55;;
62268;SDS011;56517;51.634;5.566;2023-04-07T03:54:47;22.45;;;10.35;;
62268;SDS011;56517;51.634;5.566;2023-04-07T03:56:08;19.80;;;10.95;;
62268;SDS011;56517;51.634;5.566;2023-04-07T03:57:28;20.90;;;10.75;;
62268;SDS011;56517;51.634;5.566;2023-04-07T03:58:50;20.60;;;11.10;;
62268;SDS011;56517;51.634;5.566;2023-04-07T04:00:11;20.25;;;10.00;;
62268;SDS011;56517;51.634;5.566;2023-04-07T04:01:32;25.92;;;10.20;;
62268;SDS011;56517;51.634;5.566;2023-04-07T04:02:53;19.00;;;9.70;;
62268;SDS011;56517;51.634;5.566;2023-04-07T04:04:14;19.80;;;10.75;;
62268;SDS011;56517;51.634;5.566;2023-04-07T04:05:35;22.00;;;11.40;;
62268;SDS011;56517;51.634;5.566;2023-04-07T04:06:55;21.92;;;9.93;;
62268;SDS011;56517;51.634;5.566;2023-04-07T04:08:16;20.00;;;10.00;;
62268;SDS011;56517;51.634;5.566;2023-04-07T04:09:37;21.92;;;10.43;;
62268;SDS011;56517;51.634;5.566;2023-04-07T04:10:58;23.30;;;10.50;;
62268;SDS011;56517;51.634;5.566;2023-04-07T04:12:19;23.52;;;10.63;;
62268;SDS011;56517;51.634;5.566;2023-04-07T04:13:40;25.17;;;10.68;;
62268;SDS011;56517;51.634;5.566;2023-04-07T04:15:01;21.00;;;10.75;;
62268;SDS011;56517;51.634;5.566;2023-04-07T04:16:22;17.55;;;9.65;;
62268;SDS011;56517;51.634;5.566;2023-04-07T04:17:43;26.27;;;11.30;;
62268;SDS011;56517;51.634;5.566;2023-04-07T04:19:04;18.90;;;9.95;;
62268;SDS011;56517;51.634;5.566;2023-04-07T04:20:25;22.50;;;10.70;;
62268;SDS011;56517;51.634;5.566;2023-04-07T04:21:45;21.80;;;10.60;;
62268;SDS011;56517;51.634;5.566;2023-04-07T04:23:06;19.75;;;10.35;;
62268;SDS011;56517;51.634;5.566;2023-04-07T04:24:27;22.77;;;11.20;;
62268;SDS011;56517;51.634;5.566;2023-04-07T04:25:48;21.10;;;10.25;;
62268;SDS011;56517;51.634;5.566;2023-04-07T04:27:09;21.17;;;10.30;;
62268;SDS011;56517;51.634;5.566;2023-04-07T04:28:30;23.98;;;10.23;;
62268;SDS011;56517;51.634;5.566;2023-04-07T04:29:51;17.30;;;10.10;;
62268;SDS011;56517;51.634;5.566;2023-04-07T04:31:12;16.08;;;10.10;;
62268;SDS011;56517;51.634;5.566;2023-04-07T04:32:33;30.55;;;12.00;;
62268;SDS011;56517;51.634;5.566;2023-04-07T04:33:54;21.05;;;11.32;;
62268;SDS011;56517;51.634;5.566;2023-04-07T04:35:15;21.15;;;10.32;;
62268;SDS011;56517;51.634;5.566;2023-04-07T04:36:36;19.05;;;10.00;;
62268;SDS011;56517;51.634;5.566;2023-04-07T04:37:57;20.73;;;10.02;;
62268;SDS011;56517;51.634;5.566;2023-04-07T04:39:17;23.80;;;10.88;;
62268;SDS011;56517;51.634;5.566;2023-04-07T04:40:38;19.48;;;10.85;;
62268;SDS011;56517;51.634;5.566;2023-04-07T04:41:59;23.30;;;11.52;;
62268;SDS011;56517;51.634;5.566;2023-04-07T04:43:20;22.65;;;11.38;;
62268;SDS011;56517;51.634;5.566;2023-04-07T04:44:41;20.17;;;10.98;;
62268;SDS011;56517;51.634;5.566;2023-04-07T04:46:02;23.92;;;11.18;;
62268;SDS011;56517;51.634;5.566;2023-04-07T04:47:23;26.52;;;11.95;;
62268;SDS011;56517;51.634;5.566;2023-04-07T04:48:44;21.90;;;10.85;;
62268;SDS011;56517;51.634;5.566;2023-04-07T04:50:05;25.02;;;12.82;;
62268;SDS011;56517;51.634;5.566;2023-04-07T04:51:26;28.80;;;12.43;;
62268;SDS011;56517;51.634;5.566;2023-04-07T04:52:47;26.20;;;11.75;;
62268;SDS011;56517;51.634;5.566;2023-04-07T04:54:08;20.98;;;10.27;;
62268;SDS011;56517;51.634;5.566;2023-04-07T04:55:29;31.15;;;13.10;;
62268;SDS011;56517;51.634;5.566;2023-04-07T04:56:50;20.65;;;10.73;;
62268;SDS011;56517;51.634;5.566;2023-04-07T04:58:11;24.80;;;11.43;;
62268;SDS011;56517;51.634;5.566;2023-04-07T04:59:32;21.63;;;10.60;;
62268;SDS011;56517;51.634;5.566;2023-04-07T05:00:53;31.80;;;12.63;;
62268;SDS011;56517;51.634;5.566;2023-04-07T05:02:17;27.02;;;11.85;;
62268;SDS011;56517;51.634;5.566;2023-04-07T05:03:38;27.63;;;10.88;;
62268;SDS011;56517;51.634;5.566;2023-04-07T05:05:00;23.90;;;11.68;;
62268;SDS011;56517;51.634;5.566;2023-04-07T05:06:21;29.63;;;11.77;;
62268;SDS011;56517;51.634;5.566;2023-04-07T05:07:41;28.73;;;11.85;;
62268;SDS011;56517;51.634;5.566;2023-04-07T05:09:02;32.58;;;12.80;;
62268;SDS011;56517;51.634;5.566;2023-04-07T05:10:23;25.58;;;11.57;;
62268;SDS011;56517;51.634;5.566;2023-04-07T05:11:44;26.83;;;10.65;;
62268;SDS011;56517;51.634;5.566;2023-04-07T05:13:05;25.23;;;11.73;;
62268;SDS011;56517;51.634;5.566;2023-04-07T05:14:26;26.70;;;12.43;;
62268;SDS011;56517;51.634;5.566;2023-04-07T05:15:47;27.42;;;11.57;;
62268;SDS011;56517;51.634;5.566;2023-04-07T05:17:08;26.50;;;13.63;;
62268;SDS011;56517;51.634;5.566;2023-04-07T05:18:29;31.88;;;11.90;;
62268;SDS011;56517;51.634;5.566;2023-04-07T05:19:49;26.08;;;12.18;;
62268;SDS011;56517;51.634;5.566;2023-04-07T05:21:10;24.67;;;10.90;;
62268;SDS011;56517;51.634;5.566;2023-04-07T05:22:31;23.83;;;11.00;;
62268;SDS011;56517;51.634;5.566;2023-04-07T05:23:52;22.08;;;10.07;;
62268;SDS011;56517;51.634;5.566;2023-04-07T05:25:13;24.55;;;11.32;;
62268;SDS011;56517;51.634;5.566;2023-04-07T05:26:34;32.42;;;11.27;;
62268;SDS011;56517;51.634;5.566;2023-04-07T05:27:56;25.38;;;11.93;;
62268;SDS011;56517;51.634;5.566;2023-04-07T05:29:17;24.60;;;11.48;;
62268;SDS011;56517;51.634;5.566;2023-04-07T05:30:38;24.55;;;12.57;;
62268;SDS011;56517;51.634;5.566;2023-04-07T05:31:59;20.38;;;11.00;;
62268;SDS011;56517;51.634;5.566;2023-04-07T05:33:21;27.13;;;11.90;;
62268;SDS011;56517;51.634;5.566;2023-04-07T05:34:42;24.02;;;11.57;;
62268;SDS011;56517;51.634;5.566;2023-04-07T05:36:02;31.52;;;11.93;;
62268;SDS011;56517;51.634;5.566;2023-04-07T05:37:23;25.50;;;11.57;;
62268;SDS011;56517;51.634;5.566;2023-04-07T05:38:45;21.80;;;11.13;;
62268;SDS011;56517;51.634;5.566;2023-04-07T05:40:06;29.77;;;11.00;;
62268;SDS011;56517;51.634;5.566;2023-04-07T05:41:27;25.17;;;11.23;;
62268;SDS011;56517;51.634;5.566;2023-04-07T05:42:48;28.00;;;12.60;;
62268;SDS011;56517;51.634;5.566;2023-04-07T05:44:08;34.55;;;13.63;;
62268;SDS011;56517;51.634;5.566;2023-04-07T05:45:29;24.63;;;12.30;;
62268;SDS011;56517;51.634;5.566;2023-04-07T05:46:50;30.48;;;11.52;;
62268;SDS011;56517;51.634;5.566;2023-04-07T05:48:11;23.88;;;12.32;;
62268;SDS011;56517;51.634;5.566;2023-04-07T05:49:32;27.83;;;11.90;;
62268;SDS011;56517;51.634;5.566;2023-04-07T05:50:53;29.27;;;12.48;;
62268;SDS011;56517;51.634;5.566;2023-04-07T05:52:14;26.75;;;12.73;;
62268;SDS011;56517;51.634;5.566;2023-04-07T05:53:35;25.13;;;11.57;;
62268;SDS011;56517;51.634;5.566;2023-04-07T05:54:56;28.60;;;11.52;;
62268;SDS011;56517;51.634;5.566;2023-04-07T05:56:17;32.50;;;11.75;;
62268;SDS011;56517;51.634;5.566;2023-04-07T05:57:38;31.55;;;12.43;;
62268;SDS011;56517;51.634;5.566;2023-04-07T05:58:58;28.15;;;12.25;;
62268;SDS011;56517;51.634;5.566;2023-04-07T06:00:21;26.85;;;11.77;;
62268;SDS011;56517;51.634;5.566;2023-04-07T06:01:42;30.52;;;13.25;;
62268;SDS011;56517;51.634;5.566;2023-04-07T06:03:03;34.88;;;11.75;;
62268;SDS011;56517;51.634;5.566;2023-04-07T06:04:24;28.50;;;11.68;;
62268;SDS011;56517;51.634;5.566;2023-04-07T06:05:45;26.17;;;11.48;;
62268;SDS011;56517;51.634;5.566;2023-04-07T06:07:06;27.77;;;12.98;;
62268;SDS011;56517;51.634;5.566;2023-04-07T06:08:27;23.70;;;11.93;;
62268;SDS011;56517;51.634;5.566;2023-04-07T06:09:48;22.38;;;12.18;;
62268;SDS011;56517;51.634;5.566;2023-04-07T06:11:09;29.02;;;13.45;;
62268;SDS011;56517;51.634;5.566;2023-04-07T06:12:30;31.38;;;14.38;;
62268;SDS011;56517;51.634;5.566;2023-04-07T06:13:51;22.67;;;12.18;;
62268;SDS011;56517;51.634;5.566;2023-04-07T06:15:12;29.05;;;12.55;;
62268;SDS011;56517;51.634;5.566;2023-04-07T06:16:32;26.92;;;13.70;;
62268;SDS011;56517;51.634;5.566;2023-04-07T06:17:53;27.98;;;12.90;;
62268;SDS011;56517;51.634;5.566;2023-04-07T06:19:14;31.35;;;13.10;;
62268;SDS011;56517;51.634;5.566;2023-04-07T06:20:35;22.13;;;12.38;;
62268;SDS011;56517;51.634;5.566;2023-04-07T06:21:56;27.42;;;11.73;;
62268;SDS011;56517;51.634;5.566;2023-04-07T06:23:17;26.88;;;12.02;;
62268;SDS011;56517;51.634;5.566;2023-04-07T06:24:38;24.17;;;12.60;;
62268;SDS011;56517;51.634;5.566;2023-04-07T06:25:59;29.25;;;12.55;;
62268;SDS011;56517;51.634;5.566;2023-04-07T06:27:20;27.42;;;12.43;;
62268;SDS011;56517;51.634;5.566;2023-04-07T06:28:41;35.35;;;13.38;;
62268;SDS011;56517;51.634;5.566;2023-04-07T06:30:02;25.67;;;12.38;;
62268;SDS011;56517;51.634;5.566;2023-04-07T06:31:23;27.00;;;12.30;;
62268;SDS011;56517;51.634;5.566;2023-04-07T06:32:44;26.50;;;11.68;;
62268;SDS011;56517;51.634;5.566;2023-04-07T06:34:05;27.35;;;13.02;;
62268;SDS011;56517;51.634;5.566;2023-04-07T06:35:26;28.15;;;13.07;;
62268;SDS011;56517;51.634;5.566;2023-04-07T06:36:47;22.05;;;12.35;;
62268;SDS011;56517;51.634;5.566;2023-04-07T06:38:08;18.88;;;12.05;;
62268;SDS011;56517;51.634;5.566;2023-04-07T06:39:31;28.63;;;12.00;;
62268;SDS011;56517;51.634;5.566;2023-04-07T06:40:51;25.55;;;11.98;;
62268;SDS011;56517;51.634;5.566;2023-04-07T06:42:12;22.35;;;11.65;;
62268;SDS011;56517;51.634;5.566;2023-04-07T06:43:33;26.30;;;12.57;;
62268;SDS011;56517;51.634;5.566;2023-04-07T06:44:54;22.55;;;12.43;;
62268;SDS011;56517;51.634;5.566;2023-04-07T06:46:15;17.27;;;10.77;;
62268;SDS011;56517;51.634;5.566;2023-04-07T06:47:36;23.80;;;10.93;;
62268;SDS011;56517;51.634;5.566;2023-04-07T06:48:57;21.67;;;9.90;;
62268;SDS011;56517;51.634;5.566;2023-04-07T06:50:18;24.50;;;11.15;;
62268;SDS011;56517;51.634;5.566;2023-04-07T06:51:41;18.63;;;9.90;;
62268;SDS011;56517;51.634;5.566;2023-04-07T06:53:03;22.73;;;10.50;;
62268;SDS011;56517;51.634;5.566;2023-04-07T06:54:24;18.77;;;9.47;;
62268;SDS011;56517;51.634;5.566;2023-04-07T06:55:44;15.27;;;9.27;;
62268;SDS011;56517;51.634;5.566;2023-04-07T06:57:06;17.83;;;10.20;;
62268;SDS011;56517;51.634;5.566;2023-04-07T06:58:31;22.67;;;11.20;;
62268;SDS011;56517;51.634;5.566;2023-04-07T06:59:52;15.32;;;9.82;;
62268;SDS011;56517;51.634;5.566;2023-04-07T07:01:13;14.18;;;9.18;;
62268;SDS011;56517;51.634;5.566;2023-04-07T07:02:34;18.52;;;10.13;;
62268;SDS011;56517;51.634;5.566;2023-04-07T07:03:55;18.38;;;10.82;;
62268;SDS011;56517;51.634;5.566;2023-04-07T07:05:16;19.58;;;9.65;;
62268;SDS011;56517;51.634;5.566;2023-04-07T07:06:36;20.95;;;10.55;;
62268;SDS011;56517;51.634;5.566;2023-04-07T07:07:57;17.00;;;9.82;;
62268;SDS011;56517;51.634;5.566;2023-04-07T07:09:18;20.65;;;10.50;;
62268;SDS011;56517;51.634;5.566;2023-04-07T07:10:39;23.27;;;10.00;;
62268;SDS011;56517;51.634;5.566;2023-04-07T07:12:00;25.30;;;10.98;;
62268;SDS011;56517;51.634;5.566;2023-04-07T07:13:24;17.90;;;9.85;;
62268;SDS011;56517;51.634;5.566;2023-04-07T07:14:46;20.05;;;11.55;;
62268;SDS011;56517;51.634;5.566;2023-04-07T07:16:07;17.88;;;9.23;;
62268;SDS011;56517;51.634;5.566;2023-04-07T07:17:27;20.25;;;10.50;;
62268;SDS011;56517;51.634;5.566;2023-04-07T07:18:49;19.52;;;8.80;;
62268;SDS011;56517;51.634;5.566;2023-04-07T07:20:10;17.05;;;9.85;;
62268;SDS011;56517;51.634;5.566;2023-04-07T07:21:31;14.07;;;8.82;;
62268;SDS011;56517;51.634;5.566;2023-04-07T07:22:52;15.60;;;9.85;;
62268;SDS011;56517;51.634;5.566;2023-04-07T07:24:13;18.45;;;9.10;;
62268;SDS011;56517;51.634;5.566;2023-04-07T07:25:34;21.85;;;10.48;;
62268;SDS011;56517;51.634;5.566;2023-04-07T07:26:55;18.50;;;9.50;;
62268;SDS011;56517;51.634;5.566;2023-04-07T07:28:16;18.50;;;9.07;;
62268;SDS011;56517;51.634;5.566;2023-04-07T07:29:38;15.73;;;9.52;;
62268;SDS011;56517;51.634;5.566;2023-04-07T07:30:58;20.33;;;10.52;;
62268;SDS011;56517;51.634;5.566;2023-04-07T07:32:19;17.17;;;9.40;;
62268;SDS011;56517;51.634;5.566;2023-04-07T07:33:40;16.65;;;8.57;;
62268;SDS011;56517;51.634;5.566;2023-04-07T07:35:03;15.25;;;8.52;;
62268;SDS011;56517;51.634;5.566;2023-04-07T07:36:24;17.65;;;9.18;;
62268;SDS011;56517;51.634;5.566;2023-04-07T07:37:46;11.35;;;7.43;;
62268;SDS011;56517;51.634;5.566;2023-04-07T07:39:07;18.60;;;9.38;;
62268;SDS011;56517;51.634;5.566;2023-04-07T07:40:28;20.40;;;9.45;;
62268;SDS011;56517;51.634;5.566;2023-04-07T07:41:49;16.85;;;9.02;;
62268;SDS011;56517;51.634;5.566;2023-04-07T07:43:11;13.68;;;7.43;;
62268;SDS011;56517;51.634;5.566;2023-04-07T07:44:32;11.73;;;7.72;;
62268;SDS011;56517;51.634;5.566;2023-04-07T07:45:52;13.18;;;8.27;;
62268;SDS011;56517;51.634;5.566;2023-04-07T07:47:13;16.27;;;8.48;;
62268;SDS011;56517;51.634;5.566;2023-04-07T07:48:34;16.20;;;9.25;;
62268;SDS011;56517;51.634;5.566;2023-04-07T07:49:55;18.50;;;8.35;;
62268;SDS011;56517;51.634;5.566;2023-04-07T07:51:16;20.00;;;9.73;;
62268;SDS011;56517;51.634;5.566;2023-04-07T07:52:37;13.83;;;8.53;;
62268;SDS011;56517;51.634;5.566;2023-04-07T07:53:58;14.48;;;8.23;;
62268;SDS011;56517;51.634;5.566;2023-04-07T07:55:19;12.70;;;8.27;;
62268;SDS011;56517;51.634;5.566;2023-04-07T07:56:40;16.20;;;7.70;;
62268;SDS011;56517;51.634;5.566;2023-04-07T07:58:01;19.98;;;10.18;;
62268;SDS011;56517;51.634;5.566;2023-04-07T07:59:22;17.35;;;9.52;;
62268;SDS011;56517;51.634;5.566;2023-04-07T08:00:43;18.42;;;9.48;;
62268;SDS011;56517;51.634;5.566;2023-04-07T08:02:04;16.02;;;9.27;;